createdAt,value
2023-03-26T00:01:15.497Z,7.25
2023-03-26T00:03:45.149Z,5.32
2023-03-26T00:06:14.858Z,4.53
2023-03-26T00:08:43.504Z,8.52
2023-03-26T00:11:11.809Z,4.85
2023-03-26T00:13:38.712Z,4.43
2023-03-26T00:16:05.691Z,8.07
2023-03-26T00:18:34.969Z,7.43
2023-03-26T00:21:04.639Z,6.68
2023-03-26T00:23:32.399Z,7.88
2023-03-26T00:26:00.803Z,6.22
2023-03-26T00:28:27.610Z,9.23
2023-03-26T00:31:02.062Z,6.05
2023-03-26T00:33:29.342Z,11.05
2023-03-26T00:35:58.696Z,7.57
2023-03-26T00:38:27.284Z,10.00
2023-03-26T00:40:54.747Z,17.30
2023-03-26T00:43:22.480Z,15.15
2023-03-26T00:45:51.049Z,16.65
2023-03-26T00:48:18.315Z,16.50
2023-03-26T00:50:46.892Z,17.40
2023-03-26T00:53:14.505Z,13.65
2023-03-26T00:55:41.786Z,17.80
2023-03-26T00:58:10.260Z,16.77
2023-03-26T01:00:43.811Z,24.05
2023-03-26T01:03:26.915Z,15.55
2023-03-26T01:06:04.718Z,16.02
2023-03-26T01:08:39.076Z,19.50
2023-03-26T01:11:16.620Z,17.75
2023-03-26T01:13:54.213Z,11.43
2023-03-26T01:16:31.744Z,23.70
2023-03-26T01:18:58.863Z,22.73
2023-03-26T01:21:30.023Z,19.85
2023-03-26T01:23:59.764Z,20.08
2023-03-26T01:26:29.660Z,19.70
2023-03-26T01:28:58.774Z,11.95
2023-03-26T01:31:55.314Z,20.70
2023-03-26T01:34:30.617Z,11.45
2023-03-26T01:37:13.391Z,26.60
2023-03-26T01:39:49.190Z,15.55
2023-03-26T01:42:21.954Z,23.38
2023-03-26T01:45:01.348Z,18.23
2023-03-26T01:47:28.241Z,15.52
2023-03-26T01:49:54.848Z,20.42
2023-03-26T01:52:26.088Z,19.00
2023-03-26T01:54:54.771Z,16.52
2023-03-26T01:58:14.098Z,23.73
2023-03-26T02:00:51.675Z,22.50
2023-03-26T02:03:21.460Z,25.48
2023-03-26T02:05:58.666Z,26.52
2023-03-26T02:08:36.004Z,25.88
2023-03-26T02:11:11.835Z,14.00
2023-03-26T02:13:40.036Z,24.33
2023-03-26T02:16:09.207Z,31.73
2023-03-26T02:18:36.690Z,15.10
2023-03-26T02:21:20.010Z,20.23
2023-03-26T02:23:48.738Z,31.05
2023-03-26T02:26:18.614Z,20.95
2023-03-26T02:29:06.792Z,21.75
2023-03-26T02:31:35.963Z,22.10
2023-03-26T02:34:02.702Z,26.05
2023-03-26T02:36:32.729Z,19.48
2023-03-26T02:39:02.073Z,32.30
2023-03-26T02:41:32.240Z,26.30
2023-03-26T02:44:03.268Z,28.55
2023-03-26T02:46:48.424Z,18.58
2023-03-26T02:49:33.986Z,22.98
2023-03-26T02:52:01.637Z,22.35
2023-03-26T02:54:28.283Z,24.90
2023-03-26T02:57:08.245Z,26.92
2023-03-26T02:59:54.717Z,18.23
2023-03-26T03:02:38.371Z,23.80
2023-03-26T03:05:38.084Z,17.55
2023-03-26T03:08:13.719Z,39.50
2023-03-26T03:11:03.727Z,20.58
2023-03-26T03:13:38.433Z,26.83
2023-03-26T03:16:05.687Z,20.30
2023-03-26T03:18:32.468Z,19.38
2023-03-26T03:21:00.041Z,19.48
2023-03-26T03:23:26.701Z,22.10
2023-03-26T03:26:04.524Z,21.98
2023-03-26T03:28:32.727Z,29.98
2023-03-26T03:30:59.468Z,21.92
2023-03-26T03:33:30.557Z,32.65
2023-03-26T03:35:57.346Z,19.15
2023-03-26T03:38:24.399Z,27.27
2023-03-26T03:40:54.321Z,19.42
2023-03-26T03:43:23.314Z,26.35
2023-03-26T03:46:13.083Z,35.15
2023-03-26T03:48:49.835Z,23.73
2023-03-26T03:51:25.399Z,20.75
2023-03-26T03:54:00.459Z,28.60
2023-03-26T03:56:48.944Z,35.08
2023-03-26T03:59:24.721Z,27.38
2023-03-26T04:01:52.791Z,23.83
2023-03-26T04:04:42.035Z,25.77
2023-03-26T04:07:11.747Z,20.55
2023-03-26T04:10:05.913Z,27.38
2023-03-26T04:12:50.958Z,20.65
2023-03-26T04:15:21.127Z,21.35
2023-03-26T04:17:48.206Z,27.13
2023-03-26T04:20:17.173Z,21.63
2023-03-26T04:22:46.680Z,23.35
2023-03-26T04:25:15.552Z,25.52
2023-03-26T04:27:45.077Z,18.75
2023-03-26T04:30:33.620Z,34.78
2023-03-26T04:33:15.456Z,24.70
2023-03-26T04:35:45.462Z,26.38
2023-03-26T04:38:16.820Z,20.67
2023-03-26T04:40:47.393Z,30.10
2023-03-26T04:43:16.395Z,28.80
2023-03-26T04:46:18.311Z,22.70
2023-03-26T04:48:51.747Z,24.52
2023-03-26T04:51:21.913Z,19.45
2023-03-26T04:53:54.102Z,39.80
2023-03-26T04:56:35.979Z,25.75
2023-03-26T04:59:35.315Z,26.02
2023-03-26T05:02:06.145Z,22.50
2023-03-26T05:04:43.808Z,23.55
2023-03-26T05:07:12.550Z,22.08
2023-03-26T05:09:44.665Z,28.75
2023-03-26T05:12:14.289Z,19.95
2023-03-26T05:14:54.432Z,22.85
2023-03-26T05:17:44.687Z,30.83
2023-03-26T05:20:24.419Z,27.67
2023-03-26T05:22:52.715Z,26.85
2023-03-26T05:25:24.666Z,25.38
2023-03-26T05:27:51.802Z,29.23
2023-03-26T05:30:21.487Z,25.23
2023-03-26T05:32:53.355Z,29.58
2023-03-26T05:35:24.978Z,25.52
2023-03-26T05:37:51.692Z,29.48
2023-03-26T05:40:22.508Z,20.63
2023-03-26T05:42:58.395Z,20.52
2023-03-26T05:45:34.493Z,22.38
2023-03-26T05:48:11.917Z,24.70
2023-03-26T05:50:38.586Z,18.52
2023-03-26T05:53:05.318Z,19.45
2023-03-26T05:55:58.208Z,26.35
2023-03-26T05:58:43.919Z,19.42
2023-03-26T06:01:29.349Z,20.48
2023-03-26T06:04:32.475Z,20.30
2023-03-26T06:07:23.001Z,20.42
2023-03-26T06:10:07.870Z,21.98
2023-03-26T06:12:34.495Z,29.92
2023-03-26T06:15:01.384Z,17.33
2023-03-26T06:17:40.559Z,30.90
2023-03-26T06:20:30.312Z,23.95
2023-03-26T06:22:59.854Z,30.58
2023-03-26T06:26:05.110Z,18.40
2023-03-26T06:29:02.162Z,29.25
2023-03-26T06:31:55.336Z,28.52
2023-03-26T06:34:25.901Z,21.30
2023-03-26T06:36:53.169Z,26.17
2023-03-26T06:39:21.593Z,19.20
2023-03-26T06:42:01.058Z,18.80
2023-03-26T06:44:45.547Z,33.80
2023-03-26T06:47:30.785Z,24.70
2023-03-26T06:50:16.207Z,24.67
2023-03-26T06:53:10.303Z,25.02
2023-03-26T06:56:08.517Z,23.73
2023-03-26T06:58:48.278Z,29.45
2023-03-26T07:01:33.699Z,25.95
2023-03-26T07:04:23.511Z,20.00
2023-03-26T07:07:08.730Z,19.85
2023-03-26T07:09:54.115Z,17.83
2023-03-26T07:12:44.059Z,29.88
2023-03-26T07:15:42.722Z,26.58
2023-03-26T07:18:28.054Z,25.00
2023-03-26T07:20:55.755Z,22.27
2023-03-26T07:23:24.351Z,27.67
2023-03-26T07:26:30.549Z,22.75
2023-03-26T07:29:34.398Z,18.42
2023-03-26T07:32:48.917Z,17.67
2023-03-26T07:35:55.488Z,21.55
2023-03-26T07:38:55.529Z,13.80
2023-03-26T07:41:45.151Z,25.25
2023-03-26T07:44:55.684Z,15.02
2023-03-26T07:47:42.976Z,25.58
2023-03-26T07:50:23.674Z,20.13
2023-03-26T07:53:12.200Z,10.25
2023-03-26T07:56:16.283Z,16.45
2023-03-26T07:59:22.740Z,20.40
2023-03-26T08:02:32.218Z,19.52
2023-03-26T08:05:26.103Z,15.32
2023-03-26T08:08:37.298Z,27.27
2023-03-26T08:11:31.408Z,14.95
2023-03-26T08:14:41.037Z,14.32
2023-03-26T08:17:17.621Z,25.25
2023-03-26T08:20:22.794Z,20.98
2023-03-26T08:22:56.447Z,18.02
2023-03-26T08:25:46.237Z,14.88
2023-03-26T08:28:39.070Z,11.52
2023-03-26T08:31:06.603Z,21.20
2023-03-26T08:33:35.966Z,19.20
2023-03-26T08:36:04.099Z,22.42
2023-03-26T08:38:30.777Z,16.02
2023-03-26T08:41:34.679Z,13.75
2023-03-26T08:44:30.683Z,13.73
2023-03-26T08:47:12.569Z,15.88
2023-03-26T08:50:19.200Z,20.90
2023-03-26T08:53:11.062Z,16.23
2023-03-26T08:56:16.249Z,20.08
2023-03-26T08:58:57.353Z,16.05
2023-03-26T09:01:39.237Z,16.52
2023-03-26T09:04:24.119Z,13.68
2023-03-26T09:07:10.057Z,13.20
2023-03-26T09:10:09.129Z,13.65
2023-03-26T09:13:06.636Z,14.77
2023-03-26T09:15:42.448Z,16.75
2023-03-26T09:18:27.841Z,13.43
2023-03-26T09:21:09.049Z,15.07
2023-03-26T09:24:03.391Z,11.00
2023-03-26T09:26:41.738Z,15.43
2023-03-26T09:29:20.087Z,20.52
2023-03-26T09:32:05.729Z,10.77
2023-03-26T09:35:04.648Z,10.98
2023-03-26T09:37:58.517Z,16.48
2023-03-26T09:40:44.068Z,11.57
2023-03-26T09:43:37.210Z,13.50
2023-03-26T09:46:12.814Z,15.35
2023-03-26T09:49:11.879Z,14.27
2023-03-26T09:52:12.836Z,12.38
2023-03-26T09:54:58.232Z,15.52
2023-03-26T09:57:34.739Z,10.95
2023-03-26T10:00:04.798Z,18.65
2023-03-26T10:03:02.718Z,14.85
2023-03-26T10:05:47.654Z,11.48
2023-03-26T10:08:28.246Z,13.75
2023-03-26T10:10:59.663Z,13.32
2023-03-26T10:13:31.882Z,13.68
2023-03-26T10:16:08.680Z,13.05
2023-03-26T10:19:04.354Z,18.30
2023-03-26T10:21:36.975Z,8.73
2023-03-26T10:24:16.077Z,7.65
2023-03-26T10:27:08.904Z,8.48
2023-03-26T10:30:00.185Z,7.38
2023-03-26T10:32:52.024Z,9.25
2023-03-26T10:35:18.682Z,10.05
2023-03-26T10:38:18.895Z,11.70
2023-03-26T10:41:11.653Z,9.65
2023-03-26T10:44:05.202Z,8.30
2023-03-26T10:46:36.562Z,12.45
2023-03-26T10:49:13.074Z,16.90
2023-03-26T10:51:56.174Z,6.53
2023-03-26T10:54:48.661Z,6.90
2023-03-26T10:57:26.273Z,8.70
2023-03-26T10:59:58.316Z,6.43
2023-03-26T11:02:30.200Z,5.53
2023-03-26T11:05:06.449Z,10.27
2023-03-26T11:07:42.450Z,6.03
2023-03-26T11:10:13.456Z,7.03
2023-03-26T11:12:54.160Z,14.85
2023-03-26T11:15:25.180Z,6.80
2023-03-26T11:18:03.400Z,11.77
2023-03-26T11:20:41.452Z,3.28
2023-03-26T11:23:26.688Z,8.63
2023-03-26T11:26:14.678Z,7.25
2023-03-26T11:29:03.969Z,6.72
2023-03-26T11:31:36.514Z,8.95
2023-03-26T11:34:16.516Z,6.45
2023-03-26T11:36:52.638Z,6.28
2023-03-26T11:39:26.146Z,7.15
2023-03-26T11:41:58.903Z,5.90
2023-03-26T11:44:34.813Z,5.40
2023-03-26T11:47:04.967Z,4.72
2023-03-26T11:49:32.370Z,3.45
2023-03-26T11:51:59.264Z,2.03
2023-03-26T11:54:26.384Z,1.08
2023-03-26T11:57:07.213Z,5.90
2023-03-26T11:59:53.730Z,6.25
2023-03-26T12:02:29.642Z,2.35
2023-03-26T12:05:18.002Z,4.10
2023-03-26T12:07:59.419Z,4.00
2023-03-26T12:10:35.073Z,2.40
2023-03-26T12:13:14.842Z,2.25
2023-03-26T12:15:44.659Z,4.40
2023-03-26T12:18:25.867Z,2.28
2023-03-26T12:21:08.911Z,2.67
2023-03-26T12:23:44.669Z,6.20
2023-03-26T12:26:16.129Z,4.32
2023-03-26T12:28:48.561Z,2.63
2023-03-26T12:31:19.499Z,4.13
2023-03-26T12:34:06.319Z,4.22
2023-03-26T12:36:35.706Z,3.45
2023-03-26T12:40:10.129Z,5.70
2023-03-26T12:44:47.003Z,4.68
2023-03-26T12:45:28.366Z,5.93
2023-03-26T12:48:03.986Z,2.30
2023-03-26T12:51:08.522Z,5.75
2023-03-26T12:53:47.318Z,4.15
2023-03-26T12:56:38.508Z,2.70
2023-03-26T12:59:11.964Z,1.70
2023-03-26T13:02:08.020Z,5.10
2023-03-26T13:05:02.246Z,2.22
2023-03-26T13:08:04.530Z,3.53
2023-03-26T13:10:52.586Z,1.33
2023-03-26T13:13:56.372Z,2.35
2023-03-26T13:16:28.719Z,2.67
2023-03-26T13:19:13.597Z,4.55
2023-03-26T13:21:54.667Z,2.13
2023-03-26T13:24:37.959Z,2.70
2023-03-26T13:27:10.884Z,2.38
2023-03-26T13:30:12.676Z,2.33
2023-03-26T13:32:42.525Z,4.50
2023-03-26T13:35:24.288Z,9.40
2023-03-26T13:38:00.092Z,2.88
2023-03-26T13:41:06.250Z,2.03
2023-03-26T13:43:36.149Z,1.67
2023-03-26T13:46:22.402Z,2.70
2023-03-26T13:48:54.568Z,2.85
2023-03-26T13:51:31.911Z,1.75
2023-03-26T13:54:05.406Z,2.13
2023-03-26T13:56:43.442Z,2.80
2023-03-26T13:59:39.472Z,1.67
2023-03-26T14:02:15.010Z,1.70
2023-03-26T14:04:46.750Z,3.03
2023-03-26T14:07:21.186Z,1.27
2023-03-26T14:09:54.350Z,2.28
2023-03-26T14:12:51.146Z,3.33
2023-03-26T14:15:42.327Z,4.72
2023-03-26T14:18:31.666Z,1.73
2023-03-26T14:21:17.202Z,4.10
2023-03-26T14:23:58.767Z,3.05
2023-03-26T14:26:54.601Z,1.38
2023-03-26T14:29:30.131Z,1.85
2023-03-26T14:32:26.142Z,1.58
2023-03-26T14:35:20.548Z,1.27
2023-03-26T14:37:53.568Z,3.03
2023-03-26T14:40:29.145Z,2.78
2023-03-26T14:43:18.628Z,3.00
2023-03-26T14:45:54.306Z,1.98
2023-03-26T14:48:33.776Z,2.78
2023-03-26T14:51:16.789Z,2.80
2023-03-26T14:53:55.829Z,2.80
2023-03-26T14:57:07.913Z,3.25
2023-03-26T14:59:56.385Z,2.10
2023-03-26T15:02:24.015Z,1.83
2023-03-26T15:04:53.578Z,2.08
2023-03-26T15:07:41.440Z,1.77
2023-03-26T15:10:30.001Z,3.58
2023-03-26T15:13:24.741Z,2.55
2023-03-26T15:16:21.525Z,4.85
2023-03-26T15:19:02.094Z,3.75
2023-03-26T15:21:32.129Z,3.20
2023-03-26T15:24:21.990Z,3.35
2023-03-26T15:27:11.209Z,4.40
2023-03-26T15:29:56.670Z,3.90
2023-03-26T15:32:40.533Z,6.40
2023-03-26T15:35:41.539Z,4.25
2023-03-26T15:38:38.547Z,3.53
2023-03-26T15:41:34.308Z,5.20
2023-03-26T15:44:07.536Z,5.45
2023-03-26T15:47:28.965Z,3.55
2023-03-26T15:50:08.262Z,5.15
2023-03-26T15:52:56.588Z,5.68
2023-03-26T15:55:36.273Z,3.70
2023-03-26T15:58:12.222Z,2.83
2023-03-26T16:01:08.787Z,3.00
2023-03-26T16:04:10.968Z,3.72
2023-03-26T16:06:52.856Z,6.25
2023-03-26T16:09:32.579Z,4.15
2023-03-26T16:12:23.670Z,11.02
2023-03-26T16:15:20.070Z,6.45
2023-03-26T16:18:10.268Z,10.77
2023-03-26T16:20:46.938Z,17.17
2023-03-26T16:23:47.164Z,19.15
2023-03-26T16:26:37.334Z,20.42
2023-03-26T16:29:24.741Z,16.83
2023-03-26T16:32:10.068Z,15.60
2023-03-26T16:34:43.734Z,18.20
2023-03-26T16:37:38.342Z,12.63
2023-03-26T16:40:49.394Z,24.42
2023-03-26T16:44:10.437Z,18.77
2023-03-26T16:46:43.832Z,20.20
2023-03-26T16:49:15.731Z,17.10
2023-03-26T16:52:20.458Z,18.08
2023-03-26T16:55:08.443Z,26.45
2023-03-26T16:58:13.681Z,15.63
2023-03-26T17:00:41.187Z,21.20
2023-03-26T17:03:28.500Z,25.90
2023-03-26T17:05:57.998Z,16.35
2023-03-26T17:08:36.339Z,16.05
2023-03-26T17:11:24.393Z,12.48
2023-03-26T17:14:24.509Z,13.10
2023-03-26T17:17:42.324Z,12.73
2023-03-26T17:20:35.008Z,6.90
2023-03-26T17:23:20.749Z,14.63
2023-03-26T17:26:00.484Z,15.65
2023-03-26T17:29:03.209Z,12.75
2023-03-26T17:31:41.212Z,12.15
2023-03-26T17:34:39.061Z,15.40
2023-03-26T17:37:11.435Z,10.85
2023-03-26T17:39:48.671Z,13.93
2023-03-26T17:42:38.429Z,7.60
2023-03-26T17:45:30.564Z,15.02
2023-03-26T17:47:58.902Z,7.75
2023-03-26T17:50:44.172Z,12.73
2023-03-26T17:53:21.182Z,17.48
2023-03-26T17:55:50.109Z,7.05
2023-03-26T17:58:32.421Z,11.30
2023-03-26T18:01:06.270Z,8.50
2023-03-26T18:03:40.255Z,14.38
2023-03-26T18:06:11.896Z,15.27
2023-03-26T18:08:46.351Z,16.95
2023-03-26T18:11:41.988Z,23.60
2023-03-26T18:14:29.642Z,16.98
2023-03-26T18:16:59.715Z,17.08
2023-03-26T18:19:27.066Z,17.45
2023-03-26T18:21:56.772Z,16.33
2023-03-26T18:24:37.124Z,15.90
2023-03-26T18:27:12.923Z,13.60
2023-03-26T18:29:44.763Z,13.60
2023-03-26T18:32:14.267Z,9.23
2023-03-26T18:34:49.876Z,16.95
2023-03-26T18:37:24.249Z,12.73
2023-03-26T18:40:21.503Z,9.10
2023-03-26T18:42:53.167Z,12.27
2023-03-26T18:45:34.076Z,3.55
2023-03-26T18:48:30.085Z,16.17
2023-03-26T18:51:05.023Z,16.58
2023-03-26T18:53:40.219Z,16.73
2023-03-26T18:56:31.371Z,16.15
2023-03-26T18:59:00.045Z,15.80
2023-03-26T19:01:31.128Z,13.20
2023-03-26T19:04:05.109Z,11.15
2023-03-26T19:06:36.155Z,12.40
2023-03-26T19:09:13.444Z,18.40
2023-03-26T19:11:49.500Z,10.38
2023-03-26T19:14:18.692Z,14.80
2023-03-26T19:16:56.098Z,13.35
2023-03-26T19:19:26.616Z,10.32
2023-03-26T19:21:53.235Z,13.68
2023-03-26T19:24:21.293Z,13.50
2023-03-26T19:26:48.446Z,15.05
2023-03-26T19:29:19.244Z,13.38
2023-03-26T19:31:51.054Z,15.60
2023-03-26T19:34:34.922Z,10.32
2023-03-26T19:37:16.708Z,14.35
2023-03-26T19:39:45.626Z,11.48
2023-03-26T19:42:26.390Z,20.98
2023-03-26T19:44:53.566Z,5.00
2023-03-26T19:47:23.501Z,10.27
2023-03-26T19:50:01.806Z,11.32
2023-03-26T19:52:38.318Z,12.60
2023-03-26T19:55:08.667Z,4.85
2023-03-26T19:57:36.416Z,11.63
2023-03-26T20:00:05.213Z,9.52
2023-03-26T20:02:31.893Z,10.50
2023-03-26T20:04:58.786Z,12.38
2023-03-26T20:07:35.974Z,12.38
2023-03-26T20:10:05.687Z,8.77
2023-03-26T20:12:33.108Z,8.48
2023-03-26T20:15:00.757Z,7.20
2023-03-26T20:17:30.712Z,8.93
2023-03-26T20:19:57.479Z,13.73
2023-03-26T20:22:24.586Z,10.63
2023-03-26T20:24:51.637Z,11.73
2023-03-26T20:27:19.230Z,7.60
2023-03-26T20:29:46.563Z,8.55
2023-03-26T20:32:23.663Z,11.13
2023-03-26T20:34:51.608Z,14.05
2023-03-26T20:37:20.819Z,6.68
2023-03-26T20:39:47.464Z,10.70
2023-03-26T20:42:16.021Z,20.65
2023-03-26T20:44:43.686Z,3.33
2023-03-26T20:47:11.615Z,9.07
2023-03-26T20:49:38.937Z,10.02
2023-03-26T20:52:05.727Z,9.68
2023-03-26T20:54:32.593Z,10.85
2023-03-26T20:56:59.394Z,14.18
2023-03-26T20:59:27.775Z,20.85
2023-03-26T21:01:56.765Z,15.27
2023-03-26T21:04:24.780Z,8.77
2023-03-26T21:06:53.370Z,8.27
2023-03-26T21:09:25.273Z,7.93
2023-03-26T21:12:09.689Z,12.73
2023-03-26T21:14:41.035Z,9.27
2023-03-26T21:17:16.093Z,12.38
2023-03-26T21:19:43.644Z,15.00
2023-03-26T21:22:25.874Z,10.95
2023-03-26T21:25:17.238Z,15.77
2023-03-26T21:27:54.213Z,9.48
2023-03-26T21:30:22.390Z,6.70
2023-03-26T21:32:49.260Z,7.10
2023-03-26T21:35:16.754Z,22.83
2023-03-26T21:37:46.987Z,20.45
2023-03-26T21:40:14.865Z,13.00
2023-03-26T21:42:42.799Z,6.47
2023-03-26T21:45:10.308Z,11.05
2023-03-26T21:47:37.195Z,7.85
2023-03-26T21:50:05.384Z,7.53
2023-03-26T21:52:32.346Z,11.65
2023-03-26T21:55:00.754Z,12.68
2023-03-26T21:57:34.430Z,6.90
2023-03-26T22:00:16.168Z,11.38
2023-03-26T22:02:59.655Z,9.77
2023-03-26T22:05:43.292Z,11.25
2023-03-26T22:08:31.704Z,6.30
2023-03-26T22:10:58.500Z,10.75
2023-03-26T22:13:25.657Z,4.63
2023-03-26T22:15:52.456Z,9.07
2023-03-26T22:18:21.536Z,8.55
2023-03-26T22:20:49.211Z,10.52
2023-03-26T22:23:16.643Z,11.05
2023-03-26T22:25:43.790Z,12.00
2023-03-26T22:28:10.542Z,12.65
2023-03-26T22:30:37.574Z,7.68
2023-03-26T22:33:04.766Z,4.25
2023-03-26T22:35:31.985Z,7.18
2023-03-26T22:38:00.742Z,2.78
2023-03-26T22:40:27.808Z,13.77
2023-03-26T22:42:54.495Z,7.93
2023-03-26T22:45:22.678Z,10.13
2023-03-26T22:47:49.969Z,8.85
2023-03-26T22:50:17.506Z,12.55
2023-03-26T22:52:44.105Z,18.35
2023-03-26T22:55:11.653Z,19.25
2023-03-26T22:57:38.850Z,10.63
2023-03-26T23:00:12.908Z,7.85
2023-03-26T23:02:40.565Z,5.78
2023-03-26T23:05:07.413Z,10.07
2023-03-26T23:07:34.125Z,11.80
2023-03-26T23:10:00.815Z,12.55
2023-03-26T23:12:27.783Z,6.05
2023-03-26T23:14:54.510Z,7.97
2023-03-26T23:17:21.276Z,10.15
2023-03-26T23:19:47.998Z,7.88
2023-03-26T23:22:14.613Z,11.63
2023-03-26T23:24:41.706Z,12.75
2023-03-26T23:27:08.686Z,9.68
2023-03-26T23:29:36.463Z,7.53
2023-03-26T23:32:03.233Z,9.77
2023-03-26T23:34:51.895Z,8.48
2023-03-26T23:37:23.050Z,10.68
2023-03-26T23:39:50.720Z,13.07
2023-03-26T23:42:17.333Z,13.63
2023-03-26T23:44:56.601Z,12.98
2023-03-26T23:47:23.437Z,8.52
2023-03-26T23:49:50.606Z,10.73
2023-03-26T23:52:17.222Z,15.77
2023-03-26T23:54:45.056Z,6.97
2023-03-26T23:57:11.900Z,7.72
2023-03-26T23:59:38.698Z,9.57
